Time;durP1;ratioP1;P1;durP2;ratioP2;P2;SDS_P1;SDS_P2;PMS_P1;PMS_P2;Temp;Humidity;BMP_temperature;BMP_pressure;BME280_temperature;BME280_humidity;BME280_pressure;Samples;Min_cycle;Max_cycle;Signal;HPM_P1;HPM_P2
2022/03/12 06:12:13;;;;;;;;;;;18.20;23.60;;;;;;5111883;27;20403;-53
2022/03/12 06:14:39;;;;;;;;;;;18.20;23.90;;;;;;5093309;28;19950;-52
2022/03/12 06:17:04;;;;;;;;;;;18.20;23.90;;;;;;5079519;28;19912;-50
2022/03/12 06:19:30;;;;;;;;;;;18.20;24.20;;;;;;5096401;28;19919;-51
2022/03/12 06:21:56;;;;;;;;;;;18.40;25.10;;;;;;5087787;28;20365;-51
2022/03/12 06:24:22;;;;;;;;;;;18.60;25.20;;;;;;5091330;28;20260;-50
2022/03/12 06:26:47;;;;;;;;;;;18.80;25.60;;;;;;5095642;28;19912;-49
2022/03/12 06:29:13;;;;;;;;;;;18.90;25.50;;;;;;5098092;28;19916;-50
2022/03/12 06:31:41;;;;;;;;;;;19.00;25.80;;;;;;5083652;28;19921;-51
2022/03/12 06:34:09;;;;;;;;;;;19.10;25.90;;;;;;5088254;28;19912;-50
2022/03/12 06:36:39;;;;;;;;;;;19.10;25.80;;;;;;5086356;28;19913;-50
2022/03/12 06:39:05;;;;;;;;;;;19.20;25.80;;;;;;5078848;28;19921;-49
2022/03/12 06:41:38;;;;;;;;;;;19.20;25.90;;;;;;5083337;28;20307;-48
2022/03/12 06:44:03;;;;;;;;;;;19.30;26.30;;;;;;5086176;28;20439;-50
2022/03/12 06:46:29;;;;;;;;;;;19.30;26.10;;;;;;5081546;28;20010;-51
2022/03/12 06:48:54;;;;;;;;;;;19.30;26.30;;;;;;5077231;28;19962;-50
2022/03/12 06:51:20;;;;;;;;;;;19.40;26.80;;;;;;5080603;28;19917;-48
2022/03/12 06:53:46;;;;;;;;;;;19.50;26.90;;;;;;5088182;28;20005;-50
2022/03/12 06:56:12;;;;;;;;;;;19.50;27.20;;;;;;5081794;28;20005;-53
2022/03/12 06:58:38;;;;;;;;;;;19.50;27.20;;;;;;5083039;28;19922;-52
2022/03/12 07:01:03;;;;;;;;;;;19.60;27.20;;;;;;5076672;28;20726;-50
2022/03/12 07:03:29;;;;;;;;;;;19.60;27.60;;;;;;5087591;28;19939;-53
2022/03/12 07:05:55;;;;;;;;;;;19.60;27.70;;;;;;5085310;28;19961;-53
2022/03/12 07:08:21;;;;;;;;;;;19.70;27.70;;;;;;5087533;28;20320;-52
2022/03/12 07:10:47;;;;;;;;;;;19.70;27.80;;;;;;5092576;28;20019;-52
2022/03/12 07:13:13;;;;;;;;;;;19.70;27.60;;;;;;5082701;28;19923;-51
2022/03/12 07:15:38;;;;;;;;;;;19.70;27.60;;;;;;5078873;28;20059;-53
2022/03/12 07:18:04;;;;;;;;;;;19.70;27.90;;;;;;5087302;28;19956;-52
2022/03/12 07:20:30;;;;;;;;;;;19.80;28.00;;;;;;5087626;28;19915;-50
2022/03/12 07:22:55;;;;;;;;;;;19.80;27.90;;;;;;5071913;28;19920;-50
2022/03/12 07:25:21;;;;;;;;;;;19.90;28.30;;;;;;5075665;28;20442;-50
2022/03/12 07:27:47;;;;;;;;;;;19.90;28.50;;;;;;5074164;28;19913;-50
2022/03/12 07:30:14;;;;;;;;;;;19.90;28.20;;;;;;5070484;28;19920;-50
2022/03/12 07:32:42;;;;;;;;;;;19.90;28.10;;;;;;5073958;28;20319;-49
2022/03/12 07:35:08;;;;;;;;;;;19.90;28.00;;;;;;5073442;28;19912;-52
2022/03/12 07:37:33;;;;;;;;;;;20.00;28.20;;;;;;5072283;28;19916;-53
2022/03/12 07:39:59;;;;;;;;;;;20.00;28.10;;;;;;5082284;28;20006;-49
2022/03/12 07:42:24;;;;;;;;;;;20.00;28.10;;;;;;5074451;28;19912;-53
2022/03/12 07:44:50;;;;;;;;;;;20.00;28.40;;;;;;5065418;28;19966;-50
2022/03/12 07:47:15;;;;;;;;;;;20.10;28.70;;;;;;5069081;28;19919;-53
2022/03/12 07:49:41;;;;;;;;;;;20.10;28.80;;;;;;5079288;28;20279;-49
2022/03/12 07:52:07;;;;;;;;;;;20.10;28.80;;;;;;5086586;28;20307;-48
2022/03/12 07:54:33;;;;;;;;;;;20.10;28.80;;;;;;5075032;28;19919;-50
2022/03/12 07:56:59;;;;;;;;;;;20.10;28.90;;;;;;5063759;28;20632;-49
2022/03/12 07:59:26;;;;;;;;;;;20.10;29.20;;;;;;5071874;28;20068;-50
2022/03/12 08:01:52;;;;;;;;;;;20.10;29.40;;;;;;5065348;28;19912;-49
2022/03/12 08:04:17;;;;;;;;;;;20.10;29.30;;;;;;5069133;28;19923;-51
2022/03/12 08:06:43;;;;;;;;;;;20.20;29.70;;;;;;5065918;28;19920;-49
2022/03/12 08:09:09;;;;;;;;;;;20.20;29.60;;;;;;5070861;28;20011;-51
2022/03/12 08:13:15;;;;;;;20.65;11.48;;;18.70;18.70;;;;;;5100496;27;20334;-63
2022/03/12 08:15:42;;;;;;;25.63;12.52;;;;;;;;;;5104735;28;20024;-66
2022/03/12 08:18:07;;;;;;;26.40;11.57;;;13.00;21.00;;;;;;5100695;28;20674;-66
2022/03/12 08:20:34;;;;;;;21.48;10.63;;;12.70;21.60;;;;;;5101957;28;20142;-65
2022/03/12 08:23:00;;;;;;;20.00;9.57;;;;;;;;;;5095988;28;20527;-73
2022/03/12 08:25:27;;;;;;;17.95;9.35;;;8.90;25.70;;;;;;5103729;28;20062;-73
2022/03/12 08:27:52;;;;;;;19.13;9.90;;;7.70;27.20;;;;;;5089828;28;20054;-74
2022/03/12 08:30:19;;;;;;;16.13;8.65;;;7.60;27.70;;;;;;5091946;28;20036;-70
2022/03/12 08:32:45;;;;;;;15.82;8.48;;;7.60;26.90;;;;;;5104184;28;20051;-71
2022/03/12 08:35:12;;;;;;;16.67;8.77;;;8.70;25.30;;;;;;5103579;28;20020;-72
2022/03/12 08:37:39;;;;;;;18.13;8.98;;;;;;;;;;5097826;28;20032;-71
2022/03/12 08:40:06;;;;;;;18.25;9.43;;;;;;;;;;5086571;28;20052;-72
2022/03/12 08:42:32;;;;;;;15.88;9.32;;;;;;;;;;5091823;28;20021;-72
2022/03/12 08:44:59;;;;;;;15.75;9.63;;;;;;;;;;5093608;28;20016;-70
2022/03/12 08:47:24;;;;;;;17.38;9.27;;;15.30;17.30;;;;;;5100016;28;20540;-73
2022/03/12 08:49:50;;;;;;;17.13;9.82;;;16.10;16.30;;;;;;5097887;28;20016;-73
2022/03/12 08:52:15;;;;;;;18.48;9.55;;;17.20;15.50;;;;;;5103733;28;20035;-74
2022/03/12 08:54:41;;;;;;;18.27;9.68;;;17.20;15.60;;;;;;5097158;28;20099;-73
2022/03/12 08:57:07;;;;;;;17.00;9.65;;;18.50;14.20;;;;;;5090167;28;20039;-75
2022/03/12 08:59:33;;;;;;;17.52;10.20;;;19.50;14.50;;;;;;5097323;28;20099;-75
2022/03/12 09:01:59;;;;;;;17.30;10.05;;;20.20;14.20;;;;;;5094388;28;20085;-71
2022/03/12 09:04:24;;;;;;;16.55;10.00;;;18.20;15.40;;;;;;5103573;28;20672;-73
2022/03/12 09:06:50;;;;;;;16.88;10.05;;;16.80;16.20;;;;;;5102982;28;20024;-65
2022/03/12 09:09:16;;;;;;;16.95;9.20;;;15.30;16.30;;;;;;5085020;28;20930;-74
2022/03/12 09:11:41;;;;;;;;;;;14.80;18.20;;;;;;5099595;28;20089;-74
2022/03/12 09:14:07;;;;;;;15.88;9.07;;;12.90;19.10;;;;;;5099711;28;20817;-74
2022/03/12 09:16:36;;;;;;;15.80;8.43;;;9.70;22.60;;;;;;5091367;28;20036;-71
2022/03/12 09:19:02;;;;;;;16.52;8.70;;;13.40;18.50;;;;;;5089888;28;20045;-72
2022/03/12 09:21:27;;;;;;;17.98;8.23;;;12.50;19.40;;;;;;5094327;28;20059;-76
2022/03/12 09:23:53;;;;;;;16.02;8.10;;;9.80;22.40;;;;;;5093352;28;20145;-74
2022/03/12 09:26:21;;;;;;;18.95;8.75;;;8.30;24.30;;;;;;5082567;28;20028;-75
2022/03/12 09:28:48;;;;;;;18.90;7.97;;;7.70;25.30;;;;;;5079619;28;20110;-74
2022/03/12 09:31:14;;;;;;;15.77;8.07;;;7.50;25.90;;;;;;5086075;28;20059;-74
2022/03/12 09:33:41;;;;;;;15.75;8.30;;;7.50;26.20;;;;;;5076705;28;20059;-74
2022/03/12 09:36:08;;;;;;;18.33;7.38;;;7.50;27.30;;;;;;5086467;28;20029;-75
2022/03/12 09:38:35;;;;;;;13.27;7.03;;;7.40;25.70;;;;;;5087669;28;20111;-74
2022/03/12 09:41:01;;;;;;;14.45;7.20;;;7.40;25.20;;;;;;5061596;28;20040;-71
2022/03/12 09:43:26;;;;;;;16.33;7.85;;;7.30;25.40;;;;;;5058871;28;20530;-73
2022/03/12 09:45:52;;;;;;;12.48;6.82;;;;;;;;;;5060950;28;20492;-71
2022/03/12 09:48:18;;;;;;;15.43;7.60;;;7.80;25.80;;;;;;5084154;28;20024;-69
2022/03/12 09:50:43;;;;;;;12.05;6.82;;;7.80;25.20;;;;;;5085014;28;20221;-67
2022/03/12 09:53:09;;;;;;;13.65;6.45;;;7.80;25.30;;;;;;5079607;28;20059;-68
2022/03/12 09:55:35;;;;;;;14.73;6.57;;;;;;;;;;5080372;28;20027;-68
2022/03/12 09:58:01;;;;;;;10.45;6.20;;;7.60;24.20;;;;;;5084964;28;20165;-67
2022/03/12 10:00:27;;;;;;;47.33;7.05;;;;;;;;;;5080040;28;20035;-66
2022/03/12 10:02:52;;;;;;;17.65;7.28;;;7.80;25.30;;;;;;5081128;28;20389;-67
2022/03/12 10:05:18;;;;;;;13.63;6.80;;;7.80;25.60;;;;;;5083358;28;20054;-69
2022/03/12 10:07:44;;;;;;;13.82;6.88;;;7.90;23.90;;;;;;5083999;28;20024;-67
2022/03/12 10:10:18;;;;;;;16.60;6.47;;;7.80;23.90;;;;;;5063757;28;20384;-67
2022/03/12 10:12:45;;;;;;;16.00;6.72;;;7.70;24.50;;;;;;5067885;28;20075;-66
2022/03/12 10:15:12;;;;;;;12.73;6.13;;;7.80;24.40;;;;;;5060557;28;20028;-69
2022/03/12 10:17:39;;;;;;;14.32;6.50;;;7.80;23.80;;;;;;5089439;28;20162;-66
2022/03/12 10:20:08;;;;;;;11.30;5.43;;;7.80;24.00;;;;;;5078717;28;20504;-69
2022/03/12 10:22:34;;;;;;;13.85;6.70;;;7.90;23.90;;;;;;5075396;28;20634;-64
2022/03/12 10:24:59;;;;;;;13.30;6.55;;;7.90;24.00;;;;;;5084429;28;20129;-66
2022/03/12 10:27:25;;;;;;;13.00;6.70;;;8.10;23.90;;;;;;5081617;28;20514;-68
2022/03/12 10:29:51;;;;;;;11.63;6.32;;;8.00;23.80;;;;;;5080674;28;20392;-68
2022/03/12 10:32:25;;;;;;;11.05;5.57;;;7.90;23.90;;;;;;5086398;28;20466;-69
2022/03/12 10:34:53;;;;;;;16.08;6.88;;;7.90;24.10;;;;;;5082390;28;20024;-68
2022/03/12 10:37:24;;;;;;;14.98;6.97;;;7.90;24.00;;;;;;5087845;28;20020;-65
2022/03/12 10:40:11;;;;;;;12.63;6.03;;;7.90;23.50;;;;;;5081461;28;20474;-65
2022/03/12 10:42:44;;;;;;;12.77;6.30;;;8.10;23.60;;;;;;5076171;28;20039;-64
2022/03/12 10:45:13;;;;;;;12.70;6.47;;;8.00;23.90;;;;;;5074067;28;20054;-64
2022/03/12 10:47:47;;;;;;;12.18;6.68;;;8.10;24.70;;;;;;5087050;28;20032;-64
2022/03/12 10:50:16;;;;;;;14.82;6.97;;;8.30;23.90;;;;;;5093010;28;20654;-65
2022/03/12 10:52:49;;;;;;;14.63;6.80;;;8.20;23.50;;;;;;5079395;28;20028;-65
2022/03/12 10:55:24;;;;;;;13.45;6.03;;;8.10;23.60;;;;;;5079458;28;20024;-65
2022/03/12 10:58:24;;;;;;;10.60;6.00;;;8.30;23.70;;;;;;5085527;28;20383;-67
2022/03/12 11:00:52;;;;;;;12.60;6.82;;;8.40;23.60;;;;;;5091431;28;20373;-65
2022/03/12 11:03:23;;;;;;;13.55;6.00;;;8.40;23.40;;;;;;5084943;28;20039;-67
2022/03/12 11:05:51;;;;;;;10.27;5.72;;;8.60;23.50;;;;;;5087918;28;20158;-68
2022/03/12 11:08:23;;;;;;;10.45;6.00;;;8.60;23.20;;;;;;5085464;28;20068;-68
2022/03/12 11:10:54;;;;;;;11.32;6.38;;;8.60;23.00;;;;;;5082668;28;20050;-64
2022/03/12 11:13:39;;;;;;;11.00;6.00;;;8.60;23.00;;;;;;5082631;28;20024;-63
2022/03/12 11:16:06;;;;;;;12.77;5.97;;;8.70;23.10;;;;;;5090548;28;20020;-64
2022/03/12 11:18:33;;;;;;;11.40;6.18;;;8.70;22.60;;;;;;5084664;28;20438;-64
2022/03/12 11:20:59;;;;;;;11.02;5.05;;;8.70;22.50;;;;;;5079644;28;20395;-65
2022/03/12 11:23:29;;;;;;;9.07;5.00;;;8.80;22.30;;;;;;5083784;28;20078;-65
2022/03/12 11:26:05;;;;;;;12.07;5.47;;;8.70;22.40;;;;;;5077734;28;20017;-65
2022/03/12 11:28:35;;;;;;;10.48;5.45;;;8.80;22.40;;;;;;5083029;28;20047;-64
2022/03/12 11:31:05;;;;;;;12.38;5.90;;;9.00;22.70;;;;;;5071456;28;20036;-63
2022/03/12 11:33:31;;;;;;;10.93;5.50;;;9.10;22.50;;;;;;5072452;28;20139;-65
2022/03/12 11:36:03;;;;;;;9.60;5.95;;;9.20;22.70;;;;;;5075686;28;20028;-63
2022/03/12 11:38:28;;;;;;;8.70;5.38;;;9.20;22.60;;;;;;5073194;28;20392;-63
2022/03/12 11:41:09;;;;;;;8.38;5.00;;;9.40;22.30;;;;;;5087142;28;20016;-64
2022/03/12 11:43:40;;;;;;;10.18;5.38;;;9.40;22.10;;;;;;5073199;28;21229;-65
2022/03/12 11:46:09;;;;;;;10.25;5.07;;;9.30;21.80;;;;;;5090270;28;20020;-64
2022/03/12 11:48:37;;;;;;;13.73;5.78;;;9.50;21.70;;;;;;5078699;28;20432;-64
2022/03/12 11:51:23;;;;;;;9.65;5.65;;;9.50;21.60;;;;;;5079214;28;20032;-65
2022/03/12 11:53:49;;;;;;;8.70;5.05;;;9.60;21.60;;;;;;5092093;28;20024;-67
2022/03/12 11:56:16;;;;;;;10.35;5.38;;;9.60;21.50;;;;;;5076398;28;20497;-66
2022/03/12 11:58:44;;;;;;;10.80;5.90;;;9.70;21.60;;;;;;5080839;28;20388;-66
2022/03/12 12:01:11;;;;;;;11.90;5.90;;;9.60;21.40;;;;;;5083186;28;20030;-65
2022/03/12 12:03:38;;;;;;;10.52;6.05;;;9.60;21.20;;;;;;5078636;28;20042;-65
2022/03/12 12:06:03;;;;;;;8.93;4.95;;;9.60;21.30;;;;;;5084938;28;20031;-64
2022/03/12 12:08:29;;;;;;;12.50;5.55;;;9.70;21.30;;;;;;5079924;28;20017;-63
2022/03/12 12:10:58;;;;;;;7.70;5.20;;;9.70;21.10;;;;;;5077126;28;20024;-63
2022/03/12 12:13:24;;;;;;;12.02;5.53;;;9.80;21.30;;;;;;5079810;28;20031;-64
2022/03/12 12:15:50;;;;;;;11.07;5.57;;;10.00;21.20;;;;;;5073607;28;20480;-63
2022/03/12 12:18:15;;;;;;;12.77;5.88;;;9.90;21.70;;;;;;5077924;28;20400;-65
2022/03/12 12:20:42;;;;;;;10.40;5.22;;;9.90;21.10;;;;;;5083081;28;20153;-63
2022/03/12 12:23:15;;;;;;;11.00;5.20;;;9.90;21.20;;;;;;5078977;28;20055;-63
2022/03/12 12:25:41;;;;;;;8.52;5.00;;;10.00;21.20;;;;;;5086519;28;20031;-63
2022/03/12 12:28:44;;;;;;;10.07;5.18;;;10.10;21.30;;;;;;5089102;28;20029;-63
2022/03/12 12:31:17;;;;;;;13.82;5.63;;;10.20;21.70;;;;;;5079850;28;20031;-61
2022/03/12 12:33:43;;;;;;;12.32;5.78;;;10.30;21.50;;;;;;5091624;28;20031;-61
2022/03/12 12:36:14;;;;;;;9.57;5.68;;;10.30;21.10;;;;;;5089363;28;20106;-62
2022/03/12 12:38:52;;;;;;;9.32;5.18;;;10.20;21.30;;;;;;5091357;28;20082;-65
2022/03/12 12:41:17;;;;;;;10.73;5.30;;;10.30;21.50;;;;;;5084231;28;20144;-64
2022/03/12 12:43:45;;;;;;;11.80;5.63;;;10.30;21.60;;;;;;5080996;28;20059;-65
2022/03/12 12:46:17;;;;;;;12.02;5.72;;;10.40;21.50;;;;;;5079473;28;20118;-62
2022/03/12 12:48:48;;;;;;;9.32;6.03;;;10.50;21.70;;;;;;5073120;28;20029;-63
2022/03/12 12:51:16;;;;;;;10.18;5.75;;;10.30;21.60;;;;;;5081791;28;20036;-64
2022/03/12 12:53:47;;;;;;;11.15;5.57;;;;;;;;;;5072344;28;20025;-63
2022/03/12 12:56:36;;;;;;;10.65;6.05;;;10.60;21.20;;;;;;5078468;28;20029;-62
2022/03/12 12:59:04;;;;;;;15.55;6.20;;;10.70;21.70;;;;;;5072239;28;20073;-63
2022/03/12 13:01:40;;;;;;;8.60;5.53;;;10.70;21.80;;;;;;5079235;28;20035;-64
2022/03/12 13:04:10;;;;;;;11.32;6.18;;;10.80;21.40;;;;;;5085748;28;20044;-63
2022/03/12 13:06:36;;;;;;;10.45;5.80;;;10.90;21.30;;;;;;5078724;28;20298;-64
2022/03/12 13:09:08;;;;;;;9.13;5.45;;;10.90;21.30;;;;;;5079025;28;20133;-64
2022/03/12 13:11:42;;;;;;;8.93;5.53;;;10.80;21.20;;;;;;5084002;28;20031;-65
2022/03/12 13:14:12;;;;;;;7.65;5.32;;;10.70;21.10;;;;;;5093225;28;20024;-64
2022/03/12 13:16:52;;;;;;;9.25;5.45;;;10.80;21.30;;;;;;5081519;28;20035;-63
2022/03/12 13:19:35;;;;;;;8.77;4.95;;;11.10;23.50;;;;;;5083270;28;20040;-63
2022/03/12 13:22:15;;;;;;;11.30;5.47;;;11.10;21.00;;;;;;5078067;28;20078;-63
2022/03/12 13:24:43;;;;;;;8.43;5.32;;;11.20;20.90;;;;;;5087403;28;20028;-64
2022/03/12 13:27:17;;;;;;;11.65;6.07;;;11.30;20.80;;;;;;5082722;28;20028;-64
2022/03/12 13:29:43;;;;;;;10.33;5.57;;;11.20;21.10;;;;;;5088243;28;20101;-63
2022/03/12 13:32:24;;;;;;;8.38;4.82;;;11.30;20.90;;;;;;5079706;28;20451;-63
2022/03/12 13:34:50;;;;;;;11.45;5.50;;;11.30;20.70;;;;;;5080701;28;20020;-64
2022/03/12 13:37:16;;;;;;;8.75;5.15;;;11.30;20.40;;;;;;5090127;28;20082;-65
2022/03/12 13:39:42;;;;;;;7.95;5.30;;;11.30;20.30;;;;;;5085252;28;20020;-65
2022/03/12 13:42:09;;;;;;;8.30;4.70;;;11.20;20.30;;;;;;5081191;28;20099;-67
2022/03/12 13:44:35;;;;;;;8.18;4.55;;;11.20;20.20;;;;;;5080547;28;20087;-67
2022/03/12 13:47:01;;;;;;;11.65;4.93;;;11.30;20.70;;;;;;5077805;28;20126;-66
2022/03/12 13:49:26;;;;;;;10.05;5.97;;;11.40;20.50;;;;;;5083531;28;20043;-63
2022/03/12 13:51:54;;;;;;;8.35;6.07;;;11.50;20.90;;;;;;5079340;28;20029;-65
2022/03/12 13:54:23;;;;;;;9.07;5.10;;;11.60;20.50;;;;;;5077764;28;20119;-64
2022/03/12 13:56:49;;;;;;;7.93;4.60;;;11.60;20.30;;;;;;5075969;28;20028;-64
2022/03/12 13:59:27;;;;;;;8.60;4.50;;;11.60;19.80;;;;;;5092215;28;20016;-65
2022/03/12 14:01:54;;;;;;;8.93;4.82;;;11.60;19.50;;;;;;5074834;28;20024;-65
2022/03/12 14:04:20;;;;;;;8.80;4.90;;;11.60;19.50;;;;;;5080545;28;20100;-64
2022/03/12 14:06:47;;;;;;;10.55;5.40;;;11.60;19.90;;;;;;5086951;28;20472;-63
2022/03/12 14:09:15;;;;;;;9.13;5.32;;;11.60;20.30;;;;;;5081503;28;20028;-64
2022/03/12 14:11:49;;;;;;;9.73;5.68;;;11.60;20.50;;;;;;5079572;28;20029;-65
2022/03/12 14:14:19;;;;;;;10.38;5.28;;;11.60;20.60;;;;;;5077129;28;20027;-66
2022/03/12 14:16:56;;;;;;;8.63;5.72;;;11.70;21.30;;;;;;5088209;28;20016;-65
2022/03/12 14:19:23;;;;;;;10.50;5.45;;;11.70;20.80;;;;;;5074642;28;20039;-63
2022/03/12 14:21:53;;;;;;;9.27;5.30;;;11.60;20.50;;;;;;5081407;28;20066;-63
2022/03/12 14:24:21;;;;;;;10.02;5.60;;;11.70;20.70;;;;;;5081415;28;20020;-64
2022/03/12 14:26:53;;;;;;;10.00;4.57;;;11.70;20.30;;;;;;5087384;28;20023;-62
2022/03/12 14:29:33;;;;;;;7.43;4.90;;;11.60;20.30;;;;;;5074473;28;20016;-63
2022/03/12 14:32:05;;;;;;;11.52;5.32;;;11.60;20.20;;;;;;5077215;28;20115;-64
2022/03/12 14:34:32;;;;;;;9.68;5.00;;;11.60;23.40;;;;;;5082333;28;20098;-64
2022/03/12 14:36:59;;;;;;;6.68;4.70;;;11.70;20.40;;;;;;5076465;28;20061;-64
2022/03/12 14:39:27;;;;;;;9.25;4.43;;;11.60;20.00;;;;;;5090254;28;20510;-63
2022/03/12 14:41:57;;;;;;;10.20;5.47;;;11.60;20.00;;;;;;5081317;28;20039;-62
2022/03/12 14:44:24;;;;;;;7.88;4.35;;;11.60;20.10;;;;;;5074772;28;20480;-64
2022/03/12 14:46:52;;;;;;;9.80;5.50;;;11.60;19.70;;;;;;5086091;28;20031;-65
2022/03/12 14:49:29;;;;;;;8.85;5.55;;;11.70;20.20;;;;;;5079321;28;20100;-64
2022/03/12 14:52:14;;;;;;;9.07;4.85;;;11.60;20.10;;;;;;5081680;28;20040;-64
2022/03/12 14:54:48;;;;;;;10.82;5.20;;;11.70;20.20;;;;;;5078022;28;20025;-62
2022/03/12 14:57:16;;;;;;;9.57;5.05;;;11.70;20.20;;;;;;5072875;28;20519;-66
2022/03/12 14:59:43;;;;;;;8.45;5.32;;;11.70;20.30;;;;;;5071749;28;20030;-66
2022/03/12 15:02:16;;;;;;;8.40;5.20;;;11.80;21.20;;;;;;5074673;28;20055;-64
2022/03/12 15:05:13;;;;;;;9.27;4.82;;;11.60;20.20;;;;;;5075217;28;20127;-66
2022/03/12 15:07:50;;;;;;;8.40;5.15;;;11.60;22.80;;;;;;5077089;28;20542;-65
2022/03/12 15:10:18;;;;;;;11.73;5.35;;;11.60;20.60;;;;;;5073188;28;20040;-66
2022/03/12 15:12:47;;;;;;;9.88;6.03;;;;;;;;;;5078471;28;20115;-66
2022/03/12 15:15:16;;;;;;;18.00;6.40;;;11.50;20.50;;;;;;5084643;28;20076;-67
2022/03/12 15:17:42;;;;;;;10.02;6.00;;;;;;;;;;5077772;28;20016;-66
2022/03/12 15:20:22;;;;;;;10.52;5.68;;;11.40;20.70;;;;;;5083938;28;20028;-65
2022/03/12 15:22:48;;;;;;;10.88;6.15;;;11.30;21.20;;;;;;5081265;28;20024;-66
2022/03/12 15:25:15;;;;;;;13.85;6.55;;;11.20;21.30;;;;;;5084953;28;20043;-65
2022/03/12 15:27:43;;;;;;;9.82;5.78;;;11.10;21.40;;;;;;5077057;28;20036;-66
2022/03/12 15:30:12;;;;;;;15.63;6.80;;;11.10;21.70;;;;;;5086867;28;20396;-66
2022/03/12 15:32:38;;;;;;;12.30;6.65;;;11.10;21.60;;;;;;5088610;28;20047;-65
2022/03/12 15:35:06;;;;;;;11.73;7.18;;;11.10;21.90;;;;;;5080665;28;20028;-66
2022/03/12 15:37:38;;;;;;;13.80;7.15;;;11.10;22.00;;;;;;5082792;28;20391;-63
2022/03/12 15:40:09;;;;;;;12.50;6.95;;;11.10;22.00;;;;;;5080222;28;20096;-65
2022/03/12 15:42:39;;;;;;;12.60;7.60;;;11.00;22.20;;;;;;5084958;28;20434;-65
2022/03/12 15:45:10;;;;;;;11.63;7.03;;;10.90;22.30;;;;;;5076377;28;20036;-65
2022/03/12 15:47:36;;;;;;;12.82;7.28;;;10.90;22.20;;;;;;5089033;28;20028;-64
2022/03/12 15:50:04;;;;;;;14.05;8.45;;;10.90;22.20;;;;;;5081683;28;20111;-64
2022/03/12 15:52:29;;;;;;;12.73;6.97;;;10.80;22.30;;;;;;5074738;28;20492;-64
2022/03/12 15:54:55;;;;;;;15.02;7.85;;;10.80;22.40;;;;;;5072462;28;20103;-65
2022/03/12 15:57:21;;;;;;;13.45;7.95;;;10.80;22.70;;;;;;5079945;28;20029;-62
2022/03/12 15:59:48;;;;;;;13.23;7.97;;;10.70;22.60;;;;;;5083418;28;20111;-63
2022/03/12 16:02:14;;;;;;;12.05;7.05;;;10.70;31.10;;;;;;5070885;28;20021;-65
2022/03/12 16:04:39;;;;;;;14.43;8.13;;;10.70;29.60;;;;;;5083144;28;20085;-62
2022/03/12 16:07:06;;;;;;;13.95;7.43;;;10.70;30.70;;;;;;5084599;28;20104;-65
2022/03/12 16:09:32;;;;;;;14.25;8.65;;;10.50;22.90;;;;;;5079095;28;20077;-65
2022/03/12 16:11:58;;;;;;;14.90;7.75;;;10.50;23.00;;;;;;5081780;28;20201;-64
2022/03/12 16:14:27;;;;;;;15.93;7.68;;;10.50;23.00;;;;;;5077349;28;20027;-65
2022/03/12 16:16:56;;;;;;;12.82;7.97;;;10.40;23.20;;;;;;5072081;28;20039;-65
2022/03/12 16:19:23;;;;;;;17.33;7.97;;;10.40;23.60;;;;;;5086901;28;20070;-65
2022/03/12 16:21:49;;;;;;;15.55;8.05;;;10.30;23.70;;;;;;5077121;28;20499;-68
2022/03/12 16:24:17;;;;;;;15.85;8.05;;;10.20;23.90;;;;;;5078291;28;20037;-65
2022/03/12 16:26:43;;;;;;;14.52;8.52;;;10.20;24.30;;;;;;5084840;28;20028;-67
2022/03/12 16:29:10;;;;;;;14.70;9.15;;;10.10;24.40;;;;;;5078193;28;20032;-66
2022/03/12 16:31:37;;;;;;;15.23;8.65;;;10.10;24.40;;;;;;5074888;28;20077;-65
2022/03/12 16:34:04;;;;;;;14.95;9.25;;;10.10;24.30;;;;;;5085969;28;20129;-65
2022/03/12 16:36:30;;;;;;;12.80;8.48;;;10.00;36.30;;;;;;5084339;28;20028;-66
2022/03/12 16:38:56;;;;;;;17.38;8.95;;;9.90;24.40;;;;;;5081834;28;20387;-68
2022/03/12 16:41:23;;;;;;;14.93;8.60;;;9.90;24.50;;;;;;5088338;28;20024;-65
2022/03/12 16:43:49;;;;;;;18.95;8.63;;;9.80;24.70;;;;;;5085160;28;20079;-66
2022/03/12 16:46:18;;;;;;;15.88;8.90;;;9.80;24.70;;;;;;5086171;28;20024;-67
2022/03/12 16:48:45;;;;;;;15.88;8.68;;;9.70;24.90;;;;;;5081629;28;20428;-66
2022/03/12 16:51:12;;;;;;;17.52;9.80;;;9.70;25.20;;;;;;5079557;28;20020;-65
2022/03/12 16:53:38;;;;;;;18.40;9.98;;;9.50;25.30;;;;;;5073537;28;20020;-65
2022/03/12 16:56:05;;;;;;;15.45;9.10;;;9.50;25.90;;;;;;5078987;28;20031;-66
2022/03/12 16:58:33;;;;;;;16.10;9.27;;;9.40;25.60;;;;;;5082220;28;20020;-66
2022/03/12 17:01:01;;;;;;;18.23;9.30;;;9.40;26.70;;;;;;5082044;28;20065;-65
2022/03/12 17:03:27;;;;;;;20.52;9.07;;;9.40;26.30;;;;;;5085861;28;20085;-65
2022/03/12 17:05:53;;;;;;;16.17;9.23;;;9.30;26.00;;;;;;5078119;28;20036;-66
2022/03/12 17:08:22;;;;;;;16.10;8.77;;;9.20;26.10;;;;;;5073904;28;20361;-66
2022/03/12 17:10:49;;;;;;;18.90;9.90;;;9.10;26.20;;;;;;5080786;28;20028;-66
2022/03/12 17:13:15;;;;;;;16.70;9.65;;;9.10;26.30;;;;;;5085966;28;20492;-65
2022/03/12 17:15:42;;;;;;;19.45;9.88;;;9.00;26.30;;;;;;5086649;28;20020;-68
2022/03/12 17:18:08;;;;;;;19.88;9.82;;;8.90;26.40;;;;;;5089615;28;20110;-65
2022/03/12 17:20:34;;;;;;;20.63;10.93;;;8.90;26.70;;;;;;5076577;28;20099;-65
2022/03/12 17:23:02;;;;;;;19.23;10.75;;;8.90;26.70;;;;;;5078901;28;20066;-67
2022/03/12 17:25:27;;;;;;;23.55;11.88;;;8.80;26.90;;;;;;5075238;28;20072;-65
2022/03/12 17:27:57;;;;;;;21.98;11.60;;;8.80;26.90;;;;;;5083756;28;20457;-66
2022/03/12 17:30:25;;;;;;;22.17;10.98;;;8.70;26.90;;;;;;5075260;28;20032;-66
2022/03/12 17:32:55;;;;;;;18.55;10.68;;;8.60;27.00;;;;;;5078496;28;20512;-67
2022/03/12 17:35:21;;;;;;;22.90;11.88;;;8.50;27.10;;;;;;5073518;28;20021;-65
2022/03/12 17:37:46;;;;;;;18.08;10.10;;;8.50;27.00;;;;;;5076312;28;20464;-66
2022/03/12 17:40:16;;;;;;;18.55;10.07;;;8.50;27.00;;;;;;5075500;28;20035;-66
2022/03/12 17:42:44;;;;;;;19.85;10.88;;;8.50;26.80;;;;;;5079013;28;20423;-65
2022/03/12 17:45:12;;;;;;;19.65;10.18;;;8.50;26.80;;;;;;5076714;28;20081;-67
2022/03/12 17:47:40;;;;;;;19.52;9.55;;;8.40;26.80;;;;;;5090347;28;20557;-65
2022/03/12 17:50:10;;;;;;;23.98;10.70;;;8.40;26.80;;;;;;5080009;28;20024;-66
2022/03/12 17:52:37;;;;;;;18.27;10.15;;;8.30;27.20;;;;;;5078554;28;20056;-65
2022/03/12 17:55:10;;;;;;;21.02;10.75;;;8.30;27.20;;;;;;5069995;28;20117;-65
2022/03/12 17:57:36;;;;;;;21.90;10.25;;;8.20;27.30;;;;;;5073995;28;20412;-66
2022/03/12 18:00:04;;;;;;;18.63;10.82;;;8.10;27.20;;;;;;5079057;28;20059;-65
2022/03/12 18:02:29;;;;;;;19.85;11.32;;;8.10;27.00;;;;;;5080196;28;20035;-67
2022/03/12 18:04:55;;;;;;;21.60;12.15;;;8.10;27.00;;;;;;5070727;28;20023;-64
2022/03/12 18:07:20;;;;;;;19.40;11.38;;;8.10;27.10;;;;;;5072578;28;20056;-65
2022/03/12 18:09:48;;;;;;;21.10;11.40;;;8.00;27.20;;;;;;5082991;28;20024;-65
2022/03/12 18:12:17;;;;;;;21.95;12.35;;;7.90;27.30;;;;;;5083556;28;20074;-66
2022/03/12 18:14:43;;;;;;;20.58;11.85;;;7.90;27.40;;;;;;5070958;28;20124;-68
2022/03/12 18:17:16;;;;;;;26.85;12.70;;;7.80;27.50;;;;;;5077568;28;20095;-65
2022/03/12 18:19:41;;;;;;;23.35;12.70;;;7.80;27.60;;;;;;5072422;28;20031;-67
2022/03/12 18:22:07;;;;;;;24.85;12.02;;;7.80;27.50;;;;;;5074915;28;20411;-66
2022/03/12 18:24:33;;;;;;;18.95;10.90;;;7.80;27.70;;;;;;5098733;22;20052;-63
2022/03/12 18:27:00;;;;;;;21.77;11.25;;;7.80;27.60;;;;;;5072369;28;20385;-61
2022/03/12 18:29:28;;;;;;;19.95;10.27;;;7.80;27.80;;;;;;5067627;28;20361;-62
2022/03/12 18:31:55;;;;;;;21.15;11.85;;;7.80;27.70;;;;;;5075509;28;20036;-62
2022/03/12 18:34:21;;;;;;;19.48;11.55;;;7.80;27.80;;;;;;5083299;28;20142;-64
2022/03/12 18:36:47;;;;;;;23.50;11.98;;;7.70;28.00;;;;;;5089845;28;20460;-62
2022/03/12 18:39:13;;;;;;;22.48;12.10;;;7.60;28.10;;;;;;5093200;28;20074;-62
2022/03/12 18:41:41;;;;;;;19.73;11.93;;;7.60;28.10;;;;;;5092895;28;20035;-62
2022/03/12 18:44:12;;;;;;;24.15;12.25;;;7.50;28.20;;;;;;5081213;28;20202;-62
2022/03/12 18:46:39;;;;;;;22.38;11.82;;;7.50;28.30;;;;;;5087927;28;20024;-61
2022/03/12 18:49:05;;;;;;;21.40;12.38;;;7.50;28.40;;;;;;5094094;28;20476;-61
2022/03/12 18:51:32;;;;;;;26.33;13.35;;;7.50;28.60;;;;;;5089942;28;20112;-62
2022/03/12 18:53:57;;;;;;;22.65;12.35;;;7.50;28.70;;;;;;5090917;28;20020;-63
2022/03/12 18:56:23;;;;;;;20.08;12.15;;;7.50;28.80;;;;;;5093495;28;20023;-63
2022/03/12 18:58:49;;;;;;;21.60;11.80;;;7.50;29.00;;;;;;5076800;28;20048;-62
2022/03/12 19:01:15;;;;;;;21.08;11.77;;;7.40;29.10;;;;;;5089856;28;20060;-62
2022/03/12 19:03:41;;;;;;;22.05;11.52;;;7.40;29.30;;;;;;5091477;28;20059;-62
2022/03/12 19:06:07;;;;;;;22.15;10.57;;;7.40;29.30;;;;;;5086796;28;20488;-62
2022/03/12 19:08:33;;;;;;;21.98;11.15;;;7.30;29.20;;;;;;5086873;28;20030;-64
2022/03/12 19:11:05;;;;;;;21.38;11.07;;;7.30;29.60;;;;;;5091443;28;20061;-61
2022/03/12 19:13:36;;;;;;;22.25;11.25;;;7.30;29.60;;;;;;5094573;28;20030;-61
2022/03/12 19:16:03;;;;;;;20.75;11.65;;;7.30;29.50;;;;;;5096512;28;20229;-59
2022/03/12 19:18:29;;;;;;;19.92;10.38;;;7.20;29.60;;;;;;5096942;28;20027;-62